Time;durP1;ratioP1;P1;durP2;ratioP2;P2;SDS_P1;SDS_P2;PMS_P1;PMS_P2;Temp;Humidity;BMP_temperature;BMP_pressure;BME280_temperature;BME280_humidity;BME280_pressure;Samples;Min_cycle;Max_cycle;Signal;HPM_P1;HPM_P2
2023/03/30 00:02:29;;;;;;;1999.90;999.90;;;;;;;8.68;68.17;98410.16;5036912;28;20539;-83
2023/03/30 00:04:55;;;;;;;1999.90;999.90;;;;;;;8.67;68.57;98414.00;5036895;28;20024;-85
2023/03/30 00:07:21;;;;;;;1999.90;999.90;;;;;;;8.59;68.56;98412.63;5037453;28;20082;-84
2023/03/30 00:09:46;;;;;;;1999.90;999.90;;;;;;;8.60;68.53;98400.63;5054524;28;20025;-85
2023/03/30 00:12:14;;;;;;;1999.90;999.90;;;;;;;8.68;68.08;98402.00;5054180;28;20025;-84
2023/03/30 00:14:41;;;;;;;1999.90;999.90;;;;;;;8.72;68.06;98407.72;5038211;28;20079;-82
2023/03/30 00:17:08;;;;;;;1999.90;999.90;;;;;;;8.78;67.61;98409.34;5055759;28;20021;-82
2023/03/30 00:19:36;;;;;;;1999.90;999.90;;;;;;;8.83;67.33;98409.38;5036756;28;20466;-77
2023/03/30 00:22:03;;;;;;;1999.90;999.90;;;;;;;8.88;66.91;98412.09;5037143;28;20036;-83
2023/03/30 00:24:29;;;;;;;1999.90;999.90;;;;;;;8.87;66.70;98405.00;5036924;28;20036;-82
2023/03/30 00:26:54;;;;;;;1999.90;999.90;;;;;;;8.77;66.37;98397.63;5054665;28;20024;-81
2023/03/30 00:29:20;;;;;;;1999.90;999.90;;;;;;;8.72;66.20;98380.44;5036178;28;20083;-80
2023/03/30 00:31:45;;;;;;;1999.90;999.90;;;;;;;8.81;66.18;98398.72;5054453;28;20030;-81
2023/03/30 00:34:11;;;;;;;1999.90;999.90;;;;;;;8.77;65.78;98388.66;5054644;28;20028;-81
2023/03/30 00:36:36;;;;;;;1999.90;999.90;;;;;;;8.68;66.07;98376.66;5055551;28;20238;-84
2023/03/30 00:39:05;;;;;;;1999.90;999.90;;;;;;;8.71;66.05;98392.47;5054900;28;20025;-84
2023/03/30 00:41:34;;;;;;;1999.90;999.90;;;;;;;8.65;66.11;98377.16;5038041;28;20028;-86
2023/03/30 00:44:02;;;;;;;1999.90;999.90;;;;;;;8.71;66.29;98389.75;5056208;28;20025;-85
2023/03/30 00:46:29;;;;;;;1999.90;999.90;;;;;;;8.74;65.57;98392.72;5056090;28;20036;-81
2023/03/30 00:48:57;;;;;;;1999.90;999.90;;;;;;;8.76;65.33;98389.72;5054202;28;20028;-81
2023/03/30 00:51:25;;;;;;;1999.90;999.90;;;;;;;8.69;65.56;98367.34;5053909;28;20033;-84
2023/03/30 00:53:53;;;;;;;1999.90;999.90;;;;;;;8.75;65.09;98374.44;5054278;28;20036;-82
2023/03/30 00:56:22;;;;;;;1999.90;999.90;;;;;;;8.80;65.38;98366.28;5053448;28;20565;-84
2023/03/30 00:58:49;;;;;;;1999.90;999.90;;;;;;;8.85;64.82;98363.53;5054554;28;20456;-82
2023/03/30 01:01:24;;;;;;;1999.90;999.90;;;;;;;8.79;64.79;98359.19;5053097;28;20033;-82
2023/03/30 01:03:50;;;;;;;1999.90;999.90;;;;;;;8.81;64.56;98357.00;5053373;28;20028;-83
2023/03/30 01:06:20;;;;;;;1999.90;999.90;;;;;;;8.88;63.99;98360.25;5053103;28;20044;-84
2023/03/30 01:08:46;;;;;;;1999.90;999.90;;;;;;;8.86;63.64;98343.38;5036889;28;20024;-85
2023/03/30 01:11:12;;;;;;;1999.90;999.90;;;;;;;8.91;63.01;98340.63;5036432;28;20083;-88
2023/03/30 01:13:43;;;;;;;1999.90;999.90;;;;;;;9.04;62.85;98350.97;5054556;28;20033;-81
2023/03/30 01:16:17;;;;;;;1999.90;999.90;;;;;;;9.05;62.91;98363.53;5055214;28;20028;-85
2023/03/30 01:19:02;;;;;;;1999.90;999.90;;;;;;;9.08;62.97;98357.53;5036964;28;20427;-88
2023/03/30 01:21:58;;;;;;;1999.90;999.90;;;;;;;9.08;63.16;98358.31;5035145;28;20400;-80
2023/03/30 01:24:52;;;;;;;1999.90;999.90;;;;;;;9.09;63.10;98353.69;5053067;28;20037;-78
2023/03/30 01:27:29;;;;;;;1999.90;999.90;;;;;;;9.04;63.26;98353.69;5052780;28;20028;-80
2023/03/30 01:29:57;;;;;;;1999.90;999.90;;;;;;;8.97;63.56;98350.44;5035113;28;20033;-79
2023/03/30 01:32:41;;;;;;;1999.90;999.90;;;;;;;9.00;63.55;98347.16;5053005;28;20052;-74
2023/03/30 01:35:44;;;;;;;1999.90;999.90;;;;;;;8.91;63.75;98344.16;5054218;28;20037;-82
2023/03/30 01:38:19;;;;;;;1999.90;999.90;;;;;;;8.85;64.10;98348.00;5036360;28;20123;-75
2023/03/30 01:41:05;;;;;;;1999.90;999.90;;;;;;;8.75;64.48;98331.63;5052870;28;20079;-77
2023/03/30 01:44:02;;;;;;;1999.90;999.90;;;;;;;8.79;64.34;98329.19;5052380;28;20358;-77
2023/03/30 01:46:39;;;;;;;1999.90;999.90;;;;;;;8.74;64.52;98334.66;5028436;28;20382;-78
2023/03/30 01:49:10;;;;;;;1999.90;999.90;;;;;;;8.85;64.01;98328.09;5034457;28;20021;-76
2023/03/30 01:51:43;;;;;;;1999.90;999.90;;;;;;;8.74;63.93;98323.75;5068144;28;20496;-76
2023/03/30 01:54:18;;;;;;;1999.90;999.90;;;;;;;8.67;64.44;98331.38;5053106;28;20021;-75
2023/03/30 01:56:51;;;;;;;1999.90;999.90;;;;;;;8.76;64.45;98335.19;5053209;28;20025;-75
2023/03/30 01:59:35;;;;;;;1999.90;999.90;;;;;;;8.76;64.74;98338.72;5067973;28;20029;-74
2023/03/30 02:02:05;;;;;;;1999.90;999.90;;;;;;;8.59;65.16;98321.81;5055183;28;20032;-76
2023/03/30 02:04:37;;;;;;;1999.90;999.90;;;;;;;8.56;65.54;98328.66;5055699;28;20094;-77
2023/03/30 02:07:12;;;;;;;1999.90;999.90;;;;;;;8.47;65.56;98319.38;5052349;28;20064;-75
2023/03/30 02:09:40;;;;;;;1999.90;999.90;;;;;;;8.57;65.67;98319.38;5051645;28;20025;-75
2023/03/30 02:12:08;;;;;;;1999.90;999.90;;;;;;;8.54;65.45;98319.13;5051463;28;20489;-75
2023/03/30 02:14:37;;;;;;;1999.90;999.90;;;;;;;8.52;65.92;98324.81;5051518;28;20159;-78
2023/03/30 02:17:11;;;;;;;1999.90;999.90;;;;;;;8.49;66.01;98317.19;5051481;28;20047;-75
2023/03/30 02:19:37;;;;;;;1999.90;999.90;;;;;;;8.49;66.25;98322.66;5051328;28;20052;-76
2023/03/30 02:22:03;;;;;;;1999.90;999.90;;;;;;;8.53;66.13;98329.19;5033498;28;20057;-76
2023/03/30 02:24:30;;;;;;;1999.90;999.90;;;;;;;8.47;66.80;98334.91;5051329;28;20056;-75
2023/03/30 02:26:59;;;;;;;1999.90;999.90;;;;;;;8.45;67.00;98337.94;5051681;28;20362;-76
2023/03/30 02:29:25;;;;;;;1999.90;999.90;;;;;;;8.29;67.38;98322.66;5051316;28;20074;-76
2023/03/30 02:31:55;;;;;;;1999.90;999.90;;;;;;;8.28;67.89;98326.47;5051159;28;20115;-77
2023/03/30 02:34:39;;;;;;;1999.90;999.90;;;;;;;8.29;68.10;98328.09;5051288;28;20029;-80
2023/03/30 02:37:04;;;;;;;1999.90;999.90;;;;;;;8.27;68.25;98329.44;5051678;28;20108;-79
2023/03/30 02:39:45;;;;;;;1999.90;999.90;;;;;;;8.24;70.67;98325.31;5051064;28;20108;-76
2023/03/30 02:42:20;;;;;;;1999.90;999.90;;;;;;;8.15;70.12;98320.69;5051267;28;20036;-76
2023/03/30 02:44:54;;;;;;;1999.90;999.90;;;;;;;8.16;68.99;98323.16;5051303;28;20048;-76
2023/03/30 02:47:29;;;;;;;1999.90;999.90;;;;;;;8.22;68.66;98321.25;5066664;28;20386;-75
2023/03/30 02:49:57;;;;;;;1999.90;999.90;;;;;;;8.25;68.61;98315.25;5066509;28;20021;-76
2023/03/30 02:52:52;;;;;;;1999.90;999.90;;;;;;;8.15;68.90;98320.69;5051639;28;20025;-76
2023/03/30 02:55:21;;;;;;;1999.90;999.90;;;;;;;8.08;69.19;98319.03;5035431;28;20037;-76
2023/03/30 02:58:03;;;;;;;1999.90;999.90;;;;;;;8.06;69.62;98323.94;5051623;28;20033;-77
2023/03/30 03:00:50;;;;;;;1999.90;999.90;;;;;;;7.94;69.75;98314.38;5045578;28;20069;-77
2023/03/30 03:03:40;;;;;;;1999.90;999.90;;;;;;;7.98;70.69;98320.94;5039381;28;20066;-76
2023/03/30 03:06:08;;;;;;;1999.90;999.90;;;;;;;7.96;72.02;98323.91;5033660;28;20033;-76
2023/03/30 03:08:36;;;;;;;1999.90;999.90;;;;;;;7.89;72.44;98319.84;5050845;28;20040;-76
2023/03/30 03:11:02;;;;;;;1999.90;999.90;;;;;;;7.71;72.91;98298.53;5050464;28;20116;-76
2023/03/30 03:13:27;;;;;;;1999.90;999.90;;;;;;;7.58;73.03;98271.84;5050315;28;20132;-76
2023/03/30 03:15:55;;;;;;;1999.90;999.90;;;;;;;7.84;73.18;98319.81;5051048;28;20496;-76
2023/03/30 03:18:22;;;;;;;1999.90;999.90;;;;;;;7.93;73.37;98324.47;5046752;28;20026;-79
2023/03/30 03:20:47;;;;;;;1999.90;999.90;;;;;;;7.99;72.91;98311.66;5029704;28;20026;-77
2023/03/30 03:23:12;;;;;;;1999.90;999.90;;;;;;;7.87;73.01;98300.19;5030607;28;20032;-79
2023/03/30 03:25:38;;;;;;;1999.90;999.90;;;;;;;7.85;72.76;98289.59;5030369;28;20524;-78
2023/03/30 03:28:03;;;;;;;1999.90;999.90;;;;;;;7.74;73.25;98276.22;5030605;28;20498;-81
2023/03/30 03:30:28;;;;;;;1999.90;999.90;;;;;;;7.86;73.22;98291.22;5030364;28;20083;-76
2023/03/30 03:32:54;;;;;;;1999.90;999.90;;;;;;;7.75;73.41;98281.41;5030352;28;20048;-76
2023/03/30 03:35:20;;;;;;;1999.90;999.90;;;;;;;7.83;73.65;98283.59;5030299;28;20079;-80
2023/03/30 03:37:46;;;;;;;1999.90;999.90;;;;;;;7.86;74.00;98287.69;5030756;28;20030;-78
2023/03/30 03:40:11;;;;;;;1999.90;999.90;;;;;;;7.86;74.43;98288.50;5030425;28;20052;-79
2023/03/30 03:42:37;;;;;;;1999.90;999.90;;;;;;;7.88;75.20;98288.22;5030540;28;20091;-77
2023/03/30 03:45:03;;;;;;;1999.90;999.90;;;;;;;7.78;75.13;98271.88;5030077;28;20112;-79
2023/03/30 03:47:32;;;;;;;1999.90;999.90;;;;;;;7.88;74.93;98294.50;5029993;28;20137;-80
2023/03/30 03:49:57;;;;;;;1999.90;999.90;;;;;;;7.86;75.38;98295.88;5030556;28;20390;-80
2023/03/30 03:52:23;;;;;;;1999.90;999.90;;;;;;;7.84;75.70;98295.28;5028846;28;20028;-78
2023/03/30 03:54:48;;;;;;;1999.90;999.90;;;;;;;7.89;75.65;98289.88;5033488;28;20484;-80
2023/03/30 03:57:13;;;;;;;1999.90;999.90;;;;;;;7.82;75.99;98275.69;5050261;28;20056;-77
2023/03/30 03:59:39;;;;;;;1999.90;999.90;;;;;;;7.77;76.62;98272.97;5050088;28;20503;-77
2023/03/30 04:02:04;;;;;;;1999.90;999.90;;;;;;;7.79;76.77;98278.97;5050328;28;20026;-83
2023/03/30 04:04:30;;;;;;;1999.90;999.90;;;;;;;7.85;76.74;98278.72;5050328;28;20052;-77
2023/03/30 04:06:55;;;;;;;1999.90;999.90;;;;;;;7.72;77.35;98270.22;5050771;28;20473;-76
2023/03/30 04:09:22;;;;;;;1999.90;999.90;;;;;;;7.75;77.84;98272.41;5052125;28;20036;-79
2023/03/30 04:11:48;;;;;;;1999.90;999.90;;;;;;;7.73;78.44;98269.97;5054331;28;20108;-80
2023/03/30 04:14:13;;;;;;;1999.90;999.90;;;;;;;7.73;79.14;98280.88;5052117;28;20025;-76
2023/03/30 04:16:39;;;;;;;1999.90;999.90;;;;;;;7.75;79.14;98291.47;5050993;28;20362;-77
2023/03/30 04:19:04;;;;;;;1999.90;999.90;;;;;;;7.75;79.99;98283.31;5049845;28;20493;-79
2023/03/30 04:21:30;;;;;;;1999.90;999.90;;;;;;;7.86;78.83;98282.25;5031468;28;20056;-81
2023/03/30 04:23:56;;;;;;;1999.90;999.90;;;;;;;7.87;79.54;98283.88;5049713;28;20660;-76
2023/03/30 04:26:21;;;;;;;1999.90;999.90;;;;;;;7.85;79.78;98267.81;5050284;28;20109;-77
2023/03/30 04:28:47;;;;;;;1999.90;999.90;;;;;;;7.82;80.08;98286.59;5051506;28;20037;-75
2023/03/30 04:31:12;;;;;;;1999.90;999.90;;;;;;;8.00;79.21;98286.06;5050004;28;20028;-75
2023/03/30 04:33:51;;;;;;;1999.90;999.90;;;;;;;8.04;79.29;98281.72;5053211;28;20025;-74
2023/03/30 04:36:17;;;;;;;1999.90;999.90;;;;;;;8.07;79.06;98292.09;5053232;28;20486;-79
2023/03/30 04:38:59;;;;;;;1999.90;999.90;;;;;;;8.11;79.74;98284.19;5053897;28;20396;-73
2023/03/30 04:41:33;;;;;;;1999.90;999.90;;;;;;;8.10;80.28;98291.53;5033379;28;20040;-72
2023/03/30 04:44:04;;;;;;;1999.90;999.90;;;;;;;8.11;80.28;98287.72;5044282;28;20036;-86
2023/03/30 04:46:30;;;;;;;1999.90;999.90;;;;;;;8.14;81.13;98298.09;5043353;28;20042;-80
2023/03/30 04:48:55;;;;;;;1999.90;999.90;;;;;;;8.14;81.52;98292.63;5039561;28;20048;-73
2023/03/30 04:51:21;;;;;;;1999.90;999.90;;;;;;;8.22;81.25;98283.09;5033299;28;20072;-74
2023/03/30 04:53:47;;;;;;;1999.90;999.90;;;;;;;8.26;81.05;98285.00;5036165;28;20020;-74
2023/03/30 04:56:12;;;;;;;1999.90;999.90;;;;;;;8.42;81.20;98285.88;5052976;28;20066;-83
2023/03/30 04:58:38;;;;;;;1999.90;999.90;;;;;;;8.44;81.26;98278.22;5037430;28;20024;-76
2023/03/30 05:01:03;;;;;;;1999.90;999.90;;;;;;;8.51;81.54;98284.22;5058040;28;20083;-77
2023/03/30 05:03:29;;;;;;;1999.90;999.90;;;;;;;8.62;81.00;98283.09;5052792;28;20036;-75
2023/03/30 05:05:55;;;;;;;1999.90;999.90;;;;;;;8.63;81.00;98278.47;5052826;28;20040;-77
2023/03/30 05:08:21;;;;;;;1999.90;999.90;;;;;;;8.66;81.06;98286.09;5053283;28;20071;-76
2023/03/30 05:10:47;;;;;;;1999.90;999.90;;;;;;;8.69;81.52;98291.00;5052810;28;20028;-74
2023/03/30 05:13:13;;;;;;;1999.90;999.90;;;;;;;8.77;82.36;98290.47;5061080;28;20037;-75
2023/03/30 05:15:57;;;;;;;1999.90;999.90;;;;;;;8.84;81.67;98285.53;5052394;28;20466;-76
2023/03/30 05:18:22;;;;;;;1999.90;999.90;;;;;;;8.88;82.20;98292.06;5049256;28;20036;-84
2023/03/30 05:20:48;;;;;;;1999.90;999.90;;;;;;;8.89;82.18;98283.63;5052352;28;20040;-75
2023/03/30 05:23:13;;;;;;;1999.90;999.90;;;;;;;8.86;82.79;98295.09;5051625;28;20025;-75
2023/03/30 05:25:47;;;;;;;1999.90;999.90;;;;;;;8.92;82.76;98301.34;5051904;28;20021;-78
2023/03/30 05:28:13;;;;;;;1999.90;999.90;;;;;;;8.86;82.95;98283.34;5052002;28;20501;-78
2023/03/30 05:30:38;;;;;;;1999.90;999.90;;;;;;;8.91;83.21;98296.97;5051373;28;20039;-75
2023/03/30 05:33:04;;;;;;;1999.90;999.90;;;;;;;8.94;83.50;98304.59;5051761;28;20028;-76
2023/03/30 05:35:29;;;;;;;1999.90;999.90;;;;;;;8.96;83.12;98294.22;5052403;28;20065;-86
2023/03/30 05:37:55;;;;;;;1999.90;999.90;;;;;;;8.88;83.06;98275.69;5072244;28;20025;-85
2023/03/30 05:40:21;;;;;;;1999.90;999.90;;;;;;;9.01;83.37;98310.59;5038796;28;20051;-76
2023/03/30 05:42:46;;;;;;;1999.90;999.90;;;;;;;9.06;83.26;98322.31;5055588;28;20825;-80
